sensor_id;sensor_type;location;lat;lon;timestamp;P1;durP1;ratioP1;P2;durP2;ratioP2
51654;SDS011;37732;53.106;7.030;2022-11-03T00:00:33;13.85;;;4.20;;
51654;SDS011;37732;53.106;7.030;2022-11-03T00:02:58;9.63;;;3.35;;
51654;SDS011;37732;53.106;7.030;2022-11-03T00:05:24;13.10;;;4.60;;
51654;SDS011;37732;53.106;7.030;2022-11-03T00:08:09;12.77;;;4.47;;
51654;SDS011;37732;53.106;7.030;2022-11-03T00:10:35;12.45;;;3.53;;
51654;SDS011;37732;53.106;7.030;2022-11-03T00:13:01;12.23;;;3.92;;
51654;SDS011;37732;53.106;7.030;2022-11-03T00:15:27;10.98;;;3.70;;
51654;SDS011;37732;53.106;7.030;2022-11-03T00:17:52;10.57;;;4.30;;
51654;SDS011;37732;53.106;7.030;2022-11-03T00:20:19;11.07;;;4.00;;
51654;SDS011;37732;53.106;7.030;2022-11-03T00:22:47;15.20;;;4.30;;
51654;SDS011;37732;53.106;7.030;2022-11-03T00:25:13;11.30;;;3.85;;
51654;SDS011;37732;53.106;7.030;2022-11-03T00:27:39;11.75;;;3.53;;
51654;SDS011;37732;53.106;7.030;2022-11-03T00:30:05;15.73;;;3.90;;
51654;SDS011;37732;53.106;7.030;2022-11-03T00:32:31;12.70;;;3.92;;
51654;SDS011;37732;53.106;7.030;2022-11-03T00:34:57;8.93;;;3.28;;
51654;SDS011;37732;53.106;7.030;2022-11-03T00:37:23;9.52;;;3.95;;
51654;SDS011;37732;53.106;7.030;2022-11-03T00:39:49;13.88;;;3.78;;
51654;SDS011;37732;53.106;7.030;2022-11-03T00:42:15;12.63;;;4.15;;
51654;SDS011;37732;53.106;7.030;2022-11-03T00:44:40;8.65;;;3.13;;
51654;SDS011;37732;53.106;7.030;2022-11-03T00:47:07;10.95;;;3.55;;
51654;SDS011;37732;53.106;7.030;2022-11-03T00:49:32;10.43;;;4.15;;
51654;SDS011;37732;53.106;7.030;2022-11-03T00:51:58;13.95;;;3.88;;
51654;SDS011;37732;53.106;7.030;2022-11-03T00:54:24;10.48;;;3.63;;
51654;SDS011;37732;53.106;7.030;2022-11-03T00:56:50;8.82;;;3.88;;
51654;SDS011;37732;53.106;7.030;2022-11-03T00:59:16;13.70;;;4.25;;
51654;SDS011;37732;53.106;7.030;2022-11-03T01:01:42;12.93;;;4.10;;
51654;SDS011;37732;53.106;7.030;2022-11-03T01:04:09;14.10;;;3.47;;
51654;SDS011;37732;53.106;7.030;2022-11-03T01:06:55;15.07;;;3.88;;
51654;SDS011;37732;53.106;7.030;2022-11-03T01:09:26;12.38;;;3.92;;
51654;SDS011;37732;53.106;7.030;2022-11-03T01:11:55;11.75;;;3.80;;
51654;SDS011;37732;53.106;7.030;2022-11-03T01:14:25;8.65;;;3.33;;
51654;SDS011;37732;53.106;7.030;2022-11-03T01:16:53;12.35;;;3.55;;
51654;SDS011;37732;53.106;7.030;2022-11-03T01:19:18;10.98;;;3.80;;
51654;SDS011;37732;53.106;7.030;2022-11-03T01:21:45;12.68;;;3.75;;
51654;SDS011;37732;53.106;7.030;2022-11-03T01:24:10;11.35;;;3.50;;
51654;SDS011;37732;53.106;7.030;2022-11-03T01:26:36;10.70;;;3.78;;
51654;SDS011;37732;53.106;7.030;2022-11-03T01:29:02;7.88;;;3.20;;
51654;SDS011;37732;53.106;7.030;2022-11-03T01:31:29;15.63;;;4.07;;
51654;SDS011;37732;53.106;7.030;2022-11-03T01:33:55;14.18;;;4.10;;
51654;SDS011;37732;53.106;7.030;2022-11-03T01:36:22;11.77;;;4.00;;
51654;SDS011;37732;53.106;7.030;2022-11-03T01:38:48;15.25;;;4.20;;
51654;SDS011;37732;53.106;7.030;2022-11-03T01:41:15;8.88;;;3.67;;
51654;SDS011;37732;53.106;7.030;2022-11-03T01:43:46;8.77;;;3.35;;
51654;SDS011;37732;53.106;7.030;2022-11-03T01:46:28;11.35;;;3.85;;
51654;SDS011;37732;53.106;7.030;2022-11-03T01:51:24;11.82;;;4.40;;
51654;SDS011;37732;53.106;7.030;2022-11-03T01:53:52;11.02;;;3.83;;
51654;SDS011;37732;53.106;7.030;2022-11-03T01:56:21;14.52;;;4.43;;
51654;SDS011;37732;53.106;7.030;2022-11-03T01:58:48;14.02;;;3.97;;
51654;SDS011;37732;53.106;7.030;2022-11-03T02:01:17;13.27;;;4.32;;
51654;SDS011;37732;53.106;7.030;2022-11-03T02:03:45;18.33;;;4.88;;
51654;SDS011;37732;53.106;7.030;2022-11-03T02:06:15;17.35;;;4.63;;
51654;SDS011;37732;53.106;7.030;2022-11-03T02:08:48;13.65;;;4.63;;
51654;SDS011;37732;53.106;7.030;2022-11-03T02:11:26;11.15;;;3.90;;
51654;SDS011;37732;53.106;7.030;2022-11-03T02:14:11;14.27;;;4.40;;
51654;SDS011;37732;53.106;7.030;2022-11-03T02:16:37;13.98;;;4.10;;
51654;SDS011;37732;53.106;7.030;2022-11-03T02:19:06;13.60;;;4.47;;
51654;SDS011;37732;53.106;7.030;2022-11-03T02:26:55;10.38;;;4.43;;
51654;SDS011;37732;53.106;7.030;2022-11-03T02:29:21;15.15;;;4.97;;
51654;SDS011;37732;53.106;7.030;2022-11-03T02:31:57;10.48;;;3.47;;
51654;SDS011;37732;53.106;7.030;2022-11-03T02:34:47;15.07;;;4.07;;
51654;SDS011;37732;53.106;7.030;2022-11-03T02:37:21;11.90;;;4.10;;
51654;SDS011;37732;53.106;7.030;2022-11-03T02:40:13;11.63;;;3.60;;
51654;SDS011;37732;53.106;7.030;2022-11-03T02:42:40;10.88;;;4.00;;
51654;SDS011;37732;53.106;7.030;2022-11-03T02:45:09;11.77;;;4.47;;
51654;SDS011;37732;53.106;7.030;2022-11-03T02:47:38;13.52;;;4.28;;
51654;SDS011;37732;53.106;7.030;2022-11-03T02:50:05;14.90;;;4.38;;
51654;SDS011;37732;53.106;7.030;2022-11-03T03:00:20;9.55;;;3.90;;
51654;SDS011;37732;53.106;7.030;2022-11-03T03:03:01;11.32;;;4.40;;
51654;SDS011;37732;53.106;7.030;2022-11-03T03:05:31;12.00;;;3.95;;
51654;SDS011;37732;53.106;7.030;2022-11-03T03:08:00;14.82;;;4.35;;
51654;SDS011;37732;53.106;7.030;2022-11-03T03:10:31;13.63;;;4.57;;
51654;SDS011;37732;53.106;7.030;2022-11-03T03:13:00;12.18;;;4.32;;
51654;SDS011;37732;53.106;7.030;2022-11-03T03:15:43;15.85;;;4.35;;
51654;SDS011;37732;53.106;7.030;2022-11-03T03:21:20;11.82;;;4.22;;
51654;SDS011;37732;53.106;7.030;2022-11-03T03:23:58;12.32;;;3.95;;
51654;SDS011;37732;53.106;7.030;2022-11-03T03:26:35;10.60;;;4.25;;
51654;SDS011;37732;53.106;7.030;2022-11-03T03:29:08;10.98;;;4.20;;
51654;SDS011;37732;53.106;7.030;2022-11-03T03:31:45;12.88;;;3.72;;
51654;SDS011;37732;53.106;7.030;2022-11-03T03:34:15;15.63;;;4.72;;
51654;SDS011;37732;53.106;7.030;2022-11-03T03:36:43;11.57;;;4.70;;
51654;SDS011;37732;53.106;7.030;2022-11-03T03:39:13;11.57;;;4.32;;
51654;SDS011;37732;53.106;7.030;2022-11-03T03:41:40;15.45;;;4.53;;
51654;SDS011;37732;53.106;7.030;2022-11-03T03:44:08;16.40;;;5.38;;
51654;SDS011;37732;53.106;7.030;2022-11-03T03:46:43;12.55;;;3.92;;
51654;SDS011;37732;53.106;7.030;2022-11-03T03:49:13;12.38;;;4.53;;
51654;SDS011;37732;53.106;7.030;2022-11-03T03:51:39;12.65;;;4.72;;
51654;SDS011;37732;53.106;7.030;2022-11-03T03:54:06;12.65;;;4.30;;
51654;SDS011;37732;53.106;7.030;2022-11-03T03:56:34;15.32;;;5.00;;
51654;SDS011;37732;53.106;7.030;2022-11-03T03:59:10;12.85;;;3.88;;
51654;SDS011;37732;53.106;7.030;2022-11-03T04:01:35;14.77;;;4.95;;
51654;SDS011;37732;53.106;7.030;2022-11-03T04:04:02;11.23;;;4.32;;
51654;SDS011;37732;53.106;7.030;2022-11-03T04:06:28;11.20;;;4.47;;
51654;SDS011;37732;53.106;7.030;2022-11-03T04:08:54;13.05;;;4.70;;
51654;SDS011;37732;53.106;7.030;2022-11-03T04:11:20;12.30;;;4.68;;
51654;SDS011;37732;53.106;7.030;2022-11-03T04:14:04;11.32;;;3.78;;
51654;SDS011;37732;53.106;7.030;2022-11-03T04:16:48;13.65;;;4.65;;
51654;SDS011;37732;53.106;7.030;2022-11-03T04:19:33;12.32;;;4.28;;
51654;SDS011;37732;53.106;7.030;2022-11-03T04:24:46;10.23;;;3.90;;
51654;SDS011;37732;53.106;7.030;2022-11-03T04:32:34;13.55;;;4.25;;
51654;SDS011;37732;53.106;7.030;2022-11-03T04:35:00;11.25;;;3.92;;
51654;SDS011;37732;53.106;7.030;2022-11-03T04:37:34;16.65;;;4.22;;
51654;SDS011;37732;53.106;7.030;2022-11-03T04:40:00;10.20;;;4.10;;
51654;SDS011;37732;53.106;7.030;2022-11-03T04:42:26;9.93;;;3.55;;
51654;SDS011;37732;53.106;7.030;2022-11-03T04:45:00;20.35;;;4.45;;
51654;SDS011;37732;53.106;7.030;2022-11-03T04:47:35;11.70;;;3.85;;
51654;SDS011;37732;53.106;7.030;2022-11-03T04:50:01;12.73;;;4.47;;
51654;SDS011;37732;53.106;7.030;2022-11-03T04:52:27;11.60;;;3.70;;
51654;SDS011;37732;53.106;7.030;2022-11-03T04:54:54;13.55;;;4.60;;
51654;SDS011;37732;53.106;7.030;2022-11-03T04:57:20;14.15;;;4.43;;
51654;SDS011;37732;53.106;7.030;2022-11-03T04:59:46;9.88;;;4.20;;
51654;SDS011;37732;53.106;7.030;2022-11-03T05:02:15;18.58;;;5.53;;
51654;SDS011;37732;53.106;7.030;2022-11-03T05:04:43;9.32;;;3.67;;
51654;SDS011;37732;53.106;7.030;2022-11-03T05:07:22;12.38;;;3.88;;
51654;SDS011;37732;53.106;7.030;2022-11-03T05:09:53;8.63;;;3.85;;
51654;SDS011;37732;53.106;7.030;2022-11-03T05:12:19;13.20;;;4.80;;
51654;SDS011;37732;53.106;7.030;2022-11-03T05:14:45;13.25;;;4.32;;
51654;SDS011;37732;53.106;7.030;2022-11-03T05:17:17;12.02;;;3.90;;
51654;SDS011;37732;53.106;7.030;2022-11-03T05:19:56;10.52;;;3.72;;
51654;SDS011;37732;53.106;7.030;2022-11-03T05:22:24;10.73;;;4.03;;
51654;SDS011;37732;53.106;7.030;2022-11-03T05:24:57;10.18;;;3.70;;
51654;SDS011;37732;53.106;7.030;2022-11-03T05:29:52;8.20;;;3.50;;
51654;SDS011;37732;53.106;7.030;2022-11-03T05:32:20;9.75;;;3.85;;
51654;SDS011;37732;53.106;7.030;2022-11-03T05:34:54;11.23;;;3.53;;
51654;SDS011;37732;53.106;7.030;2022-11-03T05:37:24;10.52;;;4.20;;
51654;SDS011;37732;53.106;7.030;2022-11-03T05:39:51;9.82;;;3.88;;
51654;SDS011;37732;53.106;7.030;2022-11-03T05:44:50;9.07;;;3.90;;
51654;SDS011;37732;53.106;7.030;2022-11-03T05:49:50;11.15;;;3.80;;
51654;SDS011;37732;53.106;7.030;2022-11-03T05:52:21;12.95;;;4.25;;
51654;SDS011;37732;53.106;7.030;2022-11-03T05:54:48;12.35;;;3.60;;
51654;SDS011;37732;53.106;7.030;2022-11-03T05:57:15;9.80;;;3.28;;
51654;SDS011;37732;53.106;7.030;2022-11-03T05:59:44;10.32;;;3.90;;
51654;SDS011;37732;53.106;7.030;2022-11-03T06:05:14;9.45;;;3.97;;
51654;SDS011;37732;53.106;7.030;2022-11-03T06:07:44;12.18;;;4.28;;
51654;SDS011;37732;53.106;7.030;2022-11-03T06:12:55;14.38;;;4.00;;
51654;SDS011;37732;53.106;7.030;2022-11-03T06:15:27;10.48;;;4.20;;
51654;SDS011;37732;53.106;7.030;2022-11-03T06:17:59;13.80;;;4.65;;
51654;SDS011;37732;53.106;7.030;2022-11-03T06:20:35;12.70;;;4.22;;
51654;SDS011;37732;53.106;7.030;2022-11-03T06:23:01;13.88;;;4.13;;
51654;SDS011;37732;53.106;7.030;2022-11-03T06:25:28;10.75;;;3.80;;
51654;SDS011;37732;53.106;7.030;2022-11-03T06:28:04;6.40;;;2.97;;
51654;SDS011;37732;53.106;7.030;2022-11-03T06:30:32;9.75;;;3.72;;
51654;SDS011;37732;53.106;7.030;2022-11-03T06:33:02;9.15;;;3.88;;
51654;SDS011;37732;53.106;7.030;2022-11-03T06:35:34;10.90;;;4.10;;
51654;SDS011;37732;53.106;7.030;2022-11-03T06:38:00;10.27;;;4.13;;
51654;SDS011;37732;53.106;7.030;2022-11-03T06:40:32;14.38;;;3.80;;
51654;SDS011;37732;53.106;7.030;2022-11-03T06:47:59;9.80;;;4.18;;
51654;SDS011;37732;53.106;7.030;2022-11-03T06:50:30;16.02;;;4.20;;
51654;SDS011;37732;53.106;7.030;2022-11-03T06:52:58;11.68;;;4.00;;
51654;SDS011;37732;53.106;7.030;2022-11-03T06:55:36;10.82;;;4.10;;
51654;SDS011;37732;53.106;7.030;2022-11-03T06:58:14;13.43;;;4.05;;
51654;SDS011;37732;53.106;7.030;2022-11-03T07:00:58;12.23;;;4.15;;
51654;SDS011;37732;53.106;7.030;2022-11-03T07:03:28;8.50;;;4.10;;
51654;SDS011;37732;53.106;7.030;2022-11-03T07:06:20;13.13;;;4.75;;
51654;SDS011;37732;53.106;7.030;2022-11-03T07:08:58;12.55;;;3.90;;
51654;SDS011;37732;53.106;7.030;2022-11-03T07:14:14;10.40;;;4.43;;
51654;SDS011;37732;53.106;7.030;2022-11-03T07:16:50;12.75;;;4.47;;
51654;SDS011;37732;53.106;7.030;2022-11-03T07:19:21;11.48;;;4.07;;
51654;SDS011;37732;53.106;7.030;2022-11-03T07:21:57;10.95;;;4.00;;
51654;SDS011;37732;53.106;7.030;2022-11-03T07:24:30;12.80;;;4.95;;
51654;SDS011;37732;53.106;7.030;2022-11-03T07:27:12;11.18;;;4.10;;
51654;SDS011;37732;53.106;7.030;2022-11-03T07:29:45;12.25;;;4.10;;
51654;SDS011;37732;53.106;7.030;2022-11-03T07:32:20;9.98;;;3.85;;
51654;SDS011;37732;53.106;7.030;2022-11-03T07:34:48;10.02;;;4.38;;
51654;SDS011;37732;53.106;7.030;2022-11-03T07:37:19;13.70;;;4.07;;
51654;SDS011;37732;53.106;7.030;2022-11-03T07:39:47;12.57;;;4.50;;
51654;SDS011;37732;53.106;7.030;2022-11-03T07:42:18;12.68;;;5.72;;
51654;SDS011;37732;53.106;7.030;2022-11-03T07:44:49;12.75;;;3.83;;
51654;SDS011;37732;53.106;7.030;2022-11-03T07:47:24;14.35;;;4.30;;
51654;SDS011;37732;53.106;7.030;2022-11-03T07:49:51;14.80;;;4.65;;
51654;SDS011;37732;53.106;7.030;2022-11-03T07:52:23;11.40;;;4.20;;
51654;SDS011;37732;53.106;7.030;2022-11-03T07:54:52;10.48;;;3.97;;
51654;SDS011;37732;53.106;7.030;2022-11-03T07:57:27;12.00;;;4.28;;
51654;SDS011;37732;53.106;7.030;2022-11-03T07:59:55;11.10;;;4.03;;
51654;SDS011;37732;53.106;7.030;2022-11-03T08:05:18;10.32;;;3.63;;
51654;SDS011;37732;53.106;7.030;2022-11-03T08:07:44;11.95;;;4.13;;
51654;SDS011;37732;53.106;7.030;2022-11-03T08:10:09;12.02;;;4.57;;
51654;SDS011;37732;53.106;7.030;2022-11-03T08:12:35;11.77;;;4.22;;
51654;SDS011;37732;53.106;7.030;2022-11-03T08:15:01;11.95;;;3.47;;
51654;SDS011;37732;53.106;7.030;2022-11-03T08:17:27;9.73;;;3.78;;
51654;SDS011;37732;53.106;7.030;2022-11-03T08:19:53;13.98;;;4.15;;
51654;SDS011;37732;53.106;7.030;2022-11-03T08:22:19;11.18;;;4.25;;
51654;SDS011;37732;53.106;7.030;2022-11-03T08:24:44;9.45;;;4.03;;
51654;SDS011;37732;53.106;7.030;2022-11-03T08:27:10;11.13;;;3.83;;
51654;SDS011;37732;53.106;7.030;2022-11-03T08:29:36;10.85;;;3.97;;
51654;SDS011;37732;53.106;7.030;2022-11-03T08:32:02;8.90;;;3.50;;
51654;SDS011;37732;53.106;7.030;2022-11-03T08:34:28;15.30;;;4.50;;
51654;SDS011;37732;53.106;7.030;2022-11-03T08:36:54;11.95;;;3.78;;
51654;SDS011;37732;53.106;7.030;2022-11-03T08:39:19;12.07;;;4.50;;
51654;SDS011;37732;53.106;7.030;2022-11-03T08:41:45;11.40;;;3.78;;
51654;SDS011;37732;53.106;7.030;2022-11-03T08:44:11;12.65;;;4.40;;
51654;SDS011;37732;53.106;7.030;2022-11-03T08:46:36;9.88;;;4.63;;
51654;SDS011;37732;53.106;7.030;2022-11-03T08:49:02;9.35;;;4.30;;
51654;SDS011;37732;53.106;7.030;2022-11-03T08:51:29;12.45;;;3.95;;
51654;SDS011;37732;53.106;7.030;2022-11-03T08:53:54;8.18;;;3.55;;
51654;SDS011;37732;53.106;7.030;2022-11-03T08:56:20;9.13;;;3.63;;
51654;SDS011;37732;53.106;7.030;2022-11-03T08:58:46;13.35;;;4.20;;
51654;SDS011;37732;53.106;7.030;2022-11-03T09:01:13;11.20;;;4.53;;
51654;SDS011;37732;53.106;7.030;2022-11-03T09:03:39;10.70;;;3.85;;
51654;SDS011;37732;53.106;7.030;2022-11-03T09:06:05;14.77;;;4.25;;
51654;SDS011;37732;53.106;7.030;2022-11-03T09:08:32;9.77;;;3.97;;
51654;SDS011;37732;53.106;7.030;2022-11-03T09:10:58;13.57;;;4.72;;
51654;SDS011;37732;53.106;7.030;2022-11-03T09:13:24;13.82;;;4.30;;
51654;SDS011;37732;53.106;7.030;2022-11-03T09:15:50;12.43;;;4.10;;
51654;SDS011;37732;53.106;7.030;2022-11-03T09:18:16;9.05;;;3.95;;
51654;SDS011;37732;53.106;7.030;2022-11-03T09:20:42;10.32;;;3.80;;
51654;SDS011;37732;53.106;7.030;2022-11-03T09:23:09;10.35;;;4.45;;
51654;SDS011;37732;53.106;7.030;2022-11-03T09:25:34;13.05;;;4.70;;
51654;SDS011;37732;53.106;7.030;2022-11-03T09:28:00;9.82;;;3.80;;
51654;SDS011;37732;53.106;7.030;2022-11-03T09:30:26;13.35;;;4.32;;
51654;SDS011;37732;53.106;7.030;2022-11-03T09:32:53;13.43;;;4.88;;
51654;SDS011;37732;53.106;7.030;2022-11-03T09:35:18;9.32;;;3.63;;
51654;SDS011;37732;53.106;7.030;2022-11-03T09:37:44;12.15;;;3.83;;
51654;SDS011;37732;53.106;7.030;2022-11-03T09:40:12;12.45;;;4.55;;
51654;SDS011;37732;53.106;7.030;2022-11-03T09:42:40;12.38;;;3.97;;
51654;SDS011;37732;53.106;7.030;2022-11-03T09:45:06;10.48;;;4.10;;
51654;SDS011;37732;53.106;7.030;2022-11-03T09:47:40;13.80;;;4.28;;
51654;SDS011;37732;53.106;7.030;2022-11-03T09:50:12;12.13;;;3.90;;
51654;SDS011;37732;53.106;7.030;2022-11-03T09:52:41;10.52;;;4.95;;
51654;SDS011;37732;53.106;7.030;2022-11-03T09:55:11;14.75;;;4.30;;
51654;SDS011;37732;53.106;7.030;2022-11-03T09:57:40;13.77;;;4.60;;
51654;SDS011;37732;53.106;7.030;2022-11-03T10:00:12;9.85;;;4.90;;
51654;SDS011;37732;53.106;7.030;2022-11-03T10:02:46;10.20;;;3.80;;
51654;SDS011;37732;53.106;7.030;2022-11-03T10:05:13;10.30;;;4.60;;
51654;SDS011;37732;53.106;7.030;2022-11-03T10:07:43;9.50;;;4.05;;
51654;SDS011;37732;53.106;7.030;2022-11-03T10:10:16;10.23;;;4.13;;
51654;SDS011;37732;53.106;7.030;2022-11-03T10:12:44;10.07;;;4.15;;
51654;SDS011;37732;53.106;7.030;2022-11-03T10:15:16;9.98;;;3.88;;
51654;SDS011;37732;53.106;7.030;2022-11-03T10:17:44;8.57;;;3.45;;
51654;SDS011;37732;53.106;7.030;2022-11-03T10:20:14;10.43;;;4.22;;
51654;SDS011;37732;53.106;7.030;2022-11-03T10:22:43;7.10;;;3.40;;
51654;SDS011;37732;53.106;7.030;2022-11-03T10:35:56;9.68;;;4.10;;
51654;SDS011;37732;53.106;7.030;2022-11-03T10:38:29;7.07;;;3.58;;
51654;SDS011;37732;53.106;7.030;2022-11-03T10:43:42;12.07;;;3.13;;
51654;SDS011;37732;53.106;7.030;2022-11-03T10:46:17;7.60;;;3.35;;
51654;SDS011;37732;53.106;7.030;2022-11-03T10:48:59;11.85;;;3.97;;
51654;SDS011;37732;53.106;7.030;2022-11-03T10:51:35;8.23;;;3.53;;
51654;SDS011;37732;53.106;7.030;2022-11-03T10:54:02;11.52;;;3.75;;
51654;SDS011;37732;53.106;7.030;2022-11-03T10:56:29;7.75;;;2.95;;
51654;SDS011;37732;53.106;7.030;2022-11-03T10:58:56;9.43;;;3.35;;
51654;SDS011;37732;53.106;7.030;2022-11-03T11:01:25;11.52;;;3.40;;
51654;SDS011;37732;53.106;7.030;2022-11-03T11:03:51;8.02;;;3.30;;
51654;SDS011;37732;53.106;7.030;2022-11-03T11:06:22;10.25;;;3.45;;
51654;SDS011;37732;53.106;7.030;2022-11-03T11:08:54;9.00;;;3.40;;
51654;SDS011;37732;53.106;7.030;2022-11-03T11:11:26;11.02;;;3.92;;
51654;SDS011;37732;53.106;7.030;2022-11-03T11:16:59;10.82;;;3.67;;
51654;SDS011;37732;53.106;7.030;2022-11-03T11:19:26;11.05;;;3.63;;
51654;SDS011;37732;53.106;7.030;2022-11-03T11:29:56;9.85;;;3.70;;
51654;SDS011;37732;53.106;7.030;2022-11-03T11:35:07;12.75;;;3.22;;
51654;SDS011;37732;53.106;7.030;2022-11-03T11:37:34;7.20;;;3.08;;
51654;SDS011;37732;53.106;7.030;2022-11-03T11:40:11;8.15;;;2.70;;
51654;SDS011;37732;53.106;7.030;2022-11-03T11:48:30;9.13;;;3.22;;
51654;SDS011;37732;53.106;7.030;2022-11-03T11:50:56;5.53;;;3.25;;
51654;SDS011;37732;53.106;7.030;2022-11-03T11:53:23;9.05;;;3.55;;
51654;SDS011;37732;53.106;7.030;2022-11-03T11:55:56;8.43;;;2.85;;
51654;SDS011;37732;53.106;7.030;2022-11-03T12:04:04;11.82;;;3.90;;
51654;SDS011;37732;53.106;7.030;2022-11-03T12:06:36;8.60;;;3.63;;
51654;SDS011;37732;53.106;7.030;2022-11-03T12:11:42;8.23;;;3.35;;
51654;SDS011;37732;53.106;7.030;2022-11-03T12:16:57;6.68;;;3.00;;
51654;SDS011;37732;53.106;7.030;2022-11-03T12:25:03;8.52;;;3.05;;
51654;SDS011;37732;53.106;7.030;2022-11-03T12:30:03;8.15;;;3.47;;
51654;SDS011;37732;53.106;7.030;2022-11-03T12:32:40;6.90;;;2.60;;
51654;SDS011;37732;53.106;7.030;2022-11-03T12:35:07;8.38;;;2.53;;
51654;SDS011;37732;53.106;7.030;2022-11-03T12:37:33;6.07;;;2.60;;
51654;SDS011;37732;53.106;7.030;2022-11-03T12:40:02;6.45;;;2.75;;
51654;SDS011;37732;53.106;7.030;2022-11-03T12:42:29;6.07;;;2.65;;
51654;SDS011;37732;53.106;7.030;2022-11-03T12:44:56;7.85;;;3.25;;
51654;SDS011;37732;53.106;7.030;2022-11-03T12:47:21;9.32;;;2.72;;
51654;SDS011;37732;53.106;7.030;2022-11-03T12:49:48;11.45;;;3.38;;
51654;SDS011;37732;53.106;7.030;2022-11-03T12:52:14;9.38;;;3.58;;
51654;SDS011;37732;53.106;7.030;2022-11-03T12:54:40;5.93;;;2.60;;
51654;SDS011;37732;53.106;7.030;2022-11-03T12:57:08;7.43;;;2.92;;
51654;SDS011;37732;53.106;7.030;2022-11-03T12:59:35;7.80;;;3.63;;
51654;SDS011;37732;53.106;7.030;2022-11-03T13:02:01;11.85;;;3.70;;
51654;SDS011;37732;53.106;7.030;2022-11-03T13:04:26;6.80;;;2.90;;
51654;SDS011;37732;53.106;7.030;2022-11-03T13:06:52;8.75;;;2.85;;
51654;SDS011;37732;53.106;7.030;2022-11-03T13:09:19;7.30;;;2.97;;
51654;SDS011;37732;53.106;7.030;2022-11-03T13:11:45;7.57;;;3.08;;
51654;SDS011;37732;53.106;7.030;2022-11-03T13:14:29;9.32;;;3.95;;
51654;SDS011;37732;53.106;7.030;2022-11-03T13:16:55;6.80;;;2.55;;
51654;SDS011;37732;53.106;7.030;2022-11-03T13:19:21;7.78;;;2.50;;
51654;SDS011;37732;53.106;7.030;2022-11-03T13:21:47;11.45;;;3.00;;
51654;SDS011;37732;53.106;7.030;2022-11-03T13:24:12;9.63;;;2.75;;
51654;SDS011;37732;53.106;7.030;2022-11-03T13:26:38;9.63;;;2.88;;
51654;SDS011;37732;53.106;7.030;2022-11-03T13:29:05;9.00;;;3.55;;
51654;SDS011;37732;53.106;7.030;2022-11-03T13:31:30;9.07;;;3.05;;
51654;SDS011;37732;53.106;7.030;2022-11-03T13:33:56;9.48;;;3.40;;
51654;SDS011;37732;53.106;7.030;2022-11-03T13:36:25;6.88;;;2.65;;
51654;SDS011;37732;53.106;7.030;2022-11-03T13:38:50;9.43;;;3.40;;
51654;SDS011;37732;53.106;7.030;2022-11-03T13:41:16;6.45;;;2.53;;
51654;SDS011;37732;53.106;7.030;2022-11-03T13:43:42;8.00;;;2.75;;
51654;SDS011;37732;53.106;7.030;2022-11-03T13:46:08;11.00;;;2.60;;
51654;SDS011;37732;53.106;7.030;2022-11-03T13:48:37;6.22;;;2.80;;
51654;SDS011;37732;53.106;7.030;2022-11-03T13:51:03;5.28;;;2.75;;
51654;SDS011;37732;53.106;7.030;2022-11-03T13:53:29;9.85;;;2.78;;
51654;SDS011;37732;53.106;7.030;2022-11-03T13:55:54;6.32;;;2.92;;
51654;SDS011;37732;53.106;7.030;2022-11-03T13:58:21;6.57;;;3.03;;
51654;SDS011;37732;53.106;7.030;2022-11-03T14:00:47;7.75;;;3.08;;
51654;SDS011;37732;53.106;7.030;2022-11-03T14:03:13;6.13;;;2.47;;
51654;SDS011;37732;53.106;7.030;2022-11-03T14:05:39;7.60;;;3.00;;
51654;SDS011;37732;53.106;7.030;2022-11-03T14:08:05;6.25;;;2.80;;
51654;SDS011;37732;53.106;7.030;2022-11-03T14:10:31;7.75;;;2.70;;
51654;SDS011;37732;53.106;7.030;2022-11-03T14:12:57;8.60;;;3.60;;
51654;SDS011;37732;53.106;7.030;2022-11-03T14:15:23;5.35;;;2.72;;
51654;SDS011;37732;53.106;7.030;2022-11-03T14:17:49;7.90;;;2.40;;
51654;SDS011;37732;53.106;7.030;2022-11-03T14:20:14;6.47;;;2.95;;
51654;SDS011;37732;53.106;7.030;2022-11-03T14:22:40;6.93;;;2.45;;
51654;SDS011;37732;53.106;7.030;2022-11-03T14:25:06;7.18;;;2.40;;
51654;SDS011;37732;53.106;7.030;2022-11-03T14:27:32;7.22;;;2.70;;
51654;SDS011;37732;53.106;7.030;2022-11-03T14:29:58;7.03;;;2.80;;
51654;SDS011;37732;53.106;7.030;2022-11-03T14:32:24;8.55;;;2.67;;
51654;SDS011;37732;53.106;7.030;2022-11-03T14:34:49;7.40;;;2.95;;
51654;SDS011;37732;53.106;7.030;2022-11-03T14:37:16;8.35;;;2.70;;
51654;SDS011;37732;53.106;7.030;2022-11-03T14:39:42;9.35;;;3.28;;
51654;SDS011;37732;53.106;7.030;2022-11-03T14:42:09;6.10;;;2.55;;
51654;SDS011;37732;53.106;7.030;2022-11-03T14:44:39;10.38;;;2.65;;
51654;SDS011;37732;53.106;7.030;2022-11-03T14:47:08;6.30;;;2.45;;
51654;SDS011;37732;53.106;7.030;2022-11-03T14:49:36;6.50;;;2.40;;
51654;SDS011;37732;53.106;7.030;2022-11-03T14:52:02;6.22;;;2.22;;
51654;SDS011;37732;53.106;7.030;2022-11-03T14:54:31;7.13;;;2.80;;
51654;SDS011;37732;53.106;7.030;2022-11-03T14:56:57;6.90;;;2.85;;
51654;SDS011;37732;53.106;7.030;2022-11-03T14:59:23;7.72;;;2.55;;
51654;SDS011;37732;53.106;7.030;2022-11-03T15:01:50;8.68;;;2.72;;
51654;SDS011;37732;53.106;7.030;2022-11-03T15:04:16;9.32;;;3.22;;
51654;SDS011;37732;53.106;7.030;2022-11-03T15:06:42;7.05;;;2.85;;
51654;SDS011;37732;53.106;7.030;2022-11-03T15:09:09;7.13;;;3.03;;
51654;SDS011;37732;53.106;7.030;2022-11-03T15:11:38;9.75;;;3.45;;
51654;SDS011;37732;53.106;7.030;2022-11-03T15:14:05;7.75;;;3.40;;
51654;SDS011;37732;53.106;7.030;2022-11-03T15:16:31;8.50;;;3.10;;
51654;SDS011;37732;53.106;7.030;2022-11-03T15:18:59;6.22;;;2.75;;
51654;SDS011;37732;53.106;7.030;2022-11-03T15:21:24;8.27;;;3.10;;
51654;SDS011;37732;53.106;7.030;2022-11-03T15:23:50;6.60;;;2.75;;
51654;SDS011;37732;53.106;7.030;2022-11-03T15:26:16;8.57;;;2.70;;
51654;SDS011;37732;53.106;7.030;2022-11-03T15:28:42;4.68;;;2.50;;
51654;SDS011;37732;53.106;7.030;2022-11-03T15:31:08;10.02;;;3.00;;
51654;SDS011;37732;53.106;7.030;2022-11-03T15:33:33;6.68;;;2.90;;
51654;SDS011;37732;53.106;7.030;2022-11-03T15:36:00;7.72;;;3.40;;
51654;SDS011;37732;53.106;7.030;2022-11-03T15:38:29;5.30;;;2.42;;
51654;SDS011;37732;53.106;7.030;2022-11-03T15:40:56;11.38;;;3.63;;
51654;SDS011;37732;53.106;7.030;2022-11-03T15:43:43;6.47;;;2.47;;
51654;SDS011;37732;53.106;7.030;2022-11-03T15:46:13;8.80;;;2.60;;
51654;SDS011;37732;53.106;7.030;2022-11-03T15:48:40;7.00;;;2.65;;
51654;SDS011;37732;53.106;7.030;2022-11-03T15:51:07;6.30;;;3.00;;
51654;SDS011;37732;53.106;7.030;2022-11-03T15:53:34;12.07;;;3.20;;
51654;SDS011;37732;53.106;7.030;2022-11-03T15:55:59;7.53;;;3.28;;
51654;SDS011;37732;53.106;7.030;2022-11-03T15:58:25;6.45;;;2.78;;
51654;SDS011;37732;53.106;7.030;2022-11-03T16:00:51;7.43;;;2.55;;
51654;SDS011;37732;53.106;7.030;2022-11-03T16:03:17;7.28;;;3.15;;
51654;SDS011;37732;53.106;7.030;2022-11-03T16:05:43;7.75;;;3.13;;
51654;SDS011;37732;53.106;7.030;2022-11-03T16:08:08;8.70;;;2.70;;
51654;SDS011;37732;53.106;7.030;2022-11-03T16:10:35;7.28;;;3.00;;
51654;SDS011;37732;53.106;7.030;2022-11-03T16:13:00;7.15;;;3.10;;
51654;SDS011;37732;53.106;7.030;2022-11-03T16:15:26;9.70;;;2.83;;
51654;SDS011;37732;53.106;7.030;2022-11-03T16:17:52;8.73;;;3.15;;
51654;SDS011;37732;53.106;7.030;2022-11-03T16:20:18;11.07;;;3.92;;
51654;SDS011;37732;53.106;7.030;2022-11-03T16:22:44;8.65;;;2.65;;
51654;SDS011;37732;53.106;7.030;2022-11-03T16:25:10;6.53;;;2.70;;
51654;SDS011;37732;53.106;7.030;2022-11-03T16:27:36;8.68;;;3.03;;
51654;SDS011;37732;53.106;7.030;2022-11-03T16:30:03;7.40;;;3.00;;
51654;SDS011;37732;53.106;7.030;2022-11-03T16:32:29;9.70;;;2.90;;